createdAt,value
2022-08-17T00:00:42.878Z,101003.66
2022-08-17T00:01:52.099Z,101001.31
2022-08-17T00:02:58.466Z,101001.87
2022-08-17T00:04:01.550Z,101002.15
2022-08-17T00:05:04.321Z,101001.33
2022-08-17T00:06:14.116Z,101000.19
2022-08-17T00:07:16.767Z,101004.11
2022-08-17T00:08:21.342Z,101001.20
2022-08-17T00:09:24.233Z,101000.33
2022-08-17T00:10:26.976Z,101006.51
2022-08-17T00:11:31.812Z,101002.75
2022-08-17T00:12:43.053Z,101006.51
2022-08-17T00:13:48.859Z,101007.25
2022-08-17T00:14:51.524Z,101008.34
2022-08-17T00:16:02.084Z,101006.71
2022-08-17T00:17:06.469Z,101007.82
2022-08-17T00:18:58.171Z,101007.50
2022-08-17T00:19:33.013Z,101004.31
2022-08-17T00:20:35.900Z,101006.88
2022-08-17T00:22:31.782Z,101004.60
2022-08-17T00:23:07.790Z,101008.20
2022-08-17T00:24:11.049Z,101010.26
2022-08-17T00:25:15.603Z,101009.88
2022-08-17T00:26:34.877Z,101005.35
2022-08-17T00:27:42.472Z,101007.02
2022-08-17T00:28:45.381Z,101008.96
2022-08-17T00:29:48.229Z,101007.92
2022-08-17T00:30:53.110Z,101009.06
2022-08-17T00:31:56.338Z,101005.52
2022-08-17T00:33:11.932Z,101006.56
2022-08-17T00:34:19.168Z,101006.29
2022-08-17T00:35:27.716Z,101009.40
2022-08-17T00:36:30.400Z,101011.04
2022-08-17T00:37:33.062Z,101010.75
2022-08-17T00:38:36.022Z,101008.30
2022-08-17T00:39:38.898Z,101009.02
2022-08-17T00:40:49.529Z,101009.34
2022-08-17T00:41:54.593Z,101010.48
2022-08-17T00:43:09.321Z,101011.64
2022-08-17T00:44:13.838Z,101008.85
2022-08-17T00:45:17.716Z,101008.41
2022-08-17T00:46:24.144Z,101005.16
2022-08-17T00:47:27.107Z,101005.43
2022-08-17T00:48:30.943Z,101004.39
2022-08-17T00:49:33.862Z,101007.33
2022-08-17T00:50:37.238Z,101009.39
2022-08-17T00:52:10.867Z,101009.55
2022-08-17T00:53:15.176Z,101006.73
2022-08-17T00:54:24.115Z,101007.16
2022-08-17T00:55:27.757Z,101005.46
2022-08-17T00:56:33.381Z,101006.39
2022-08-17T00:57:40.433Z,101009.05
2022-08-17T00:58:43.332Z,101006.41
2022-08-17T00:59:51.111Z,101007.42
2022-08-17T01:01:06.604Z,101010.38
2022-08-17T01:02:12.611Z,101016.25
2022-08-17T01:03:21.468Z,101013.96
2022-08-17T01:04:26.308Z,101015.20
2022-08-17T01:05:30.944Z,101016.02
2022-08-17T01:06:33.924Z,101012.43
2022-08-17T01:07:37.979Z,101014.77
2022-08-17T01:08:40.996Z,101015.83
2022-08-17T01:09:44.588Z,101016.95
2022-08-17T01:10:59.417Z,101017.00
2022-08-17T01:12:08.503Z,101020.17
2022-08-17T01:13:12.154Z,101013.57
2022-08-17T01:14:15.032Z,101019.90
2022-08-17T01:15:17.901Z,101019.46
2022-08-17T01:16:23.321Z,101013.98
2022-08-17T01:17:27.360Z,101013.59
2022-08-17T01:18:31.215Z,101017.08
2022-08-17T01:19:35.900Z,101017.29
2022-08-17T01:20:47.903Z,101014.35
2022-08-17T01:22:07.494Z,101018.42
2022-08-17T01:23:10.305Z,101020.71
2022-08-17T01:24:21.193Z,101018.21
2022-08-17T01:25:25.043Z,101013.42
2022-08-17T01:26:29.015Z,101015.31
2022-08-17T01:27:31.955Z,101016.56
2022-08-17T01:28:54.509Z,101013.85
2022-08-17T01:30:00.202Z,101012.00
2022-08-17T01:32:38.549Z,101012.96
2022-08-17T01:33:41.353Z,101012.48
2022-08-17T01:34:50.492Z,101013.85
2022-08-17T01:35:53.655Z,101012.75
2022-08-17T01:36:58.506Z,101012.59
2022-08-17T01:38:01.359Z,101009.52
2022-08-17T01:39:05.734Z,101010.92
2022-08-17T01:40:28.054Z,101011.52
2022-08-17T01:41:30.803Z,101014.95
2022-08-17T01:42:36.781Z,101015.98
2022-08-17T01:43:45.040Z,101013.64
2022-08-17T01:44:48.207Z,101015.96
2022-08-17T01:46:03.259Z,101016.41
2022-08-17T01:47:06.593Z,101018.35
2022-08-17T01:48:09.994Z,101014.42
2022-08-17T01:49:12.947Z,101010.11
2022-08-17T01:50:18.221Z,101010.22
2022-08-17T01:51:21.553Z,101006.64
2022-08-17T01:52:24.229Z,101005.66
2022-08-17T01:53:32.618Z,101008.00
2022-08-17T01:54:36.288Z,101008.00
2022-08-17T01:55:52.550Z,101008.05
2022-08-17T01:56:55.343Z,101008.16
2022-08-17T01:57:58.259Z,101009.14
2022-08-17T01:59:01.705Z,101005.77
2022-08-17T02:00:06.475Z,101005.71
2022-08-17T02:01:14.817Z,101005.93
2022-08-17T02:02:31.210Z,101005.50
2022-08-17T02:03:35.629Z,101009.74
2022-08-17T02:04:38.385Z,101009.64
2022-08-17T02:05:41.443Z,101007.19
2022-08-17T02:06:47.029Z,101010.56
2022-08-17T02:08:00.286Z,101011.49
2022-08-17T02:09:03.997Z,101012.46
2022-08-17T02:10:20.147Z,101010.77
2022-08-17T02:11:23.166Z,101013.34
2022-08-17T02:12:38.877Z,101011.82
2022-08-17T02:13:43.253Z,101010.52
2022-08-17T02:14:46.332Z,101011.43
2022-08-17T02:15:48.996Z,101008.77
2022-08-17T02:16:52.095Z,101008.70
2022-08-17T02:17:55.010Z,101009.95
2022-08-17T02:18:57.935Z,101014.64
2022-08-17T02:20:00.643Z,101012.89
2022-08-17T02:21:03.559Z,101014.48
2022-08-17T02:22:06.409Z,101016.65
2022-08-17T02:23:10.709Z,101020.73
2022-08-17T02:24:17.451Z,101017.96
2022-08-17T02:25:42.094Z,101019.33
2022-08-17T02:26:46.271Z,101016.77
2022-08-17T02:27:48.973Z,101015.13
2022-08-17T02:28:51.776Z,101012.63
2022-08-17T02:29:55.687Z,101005.08
2022-08-17T02:31:03.739Z,101003.63
2022-08-17T02:32:06.579Z,101001.67
2022-08-17T02:33:09.690Z,100998.39
2022-08-17T02:34:12.480Z,100997.45
2022-08-17T02:35:15.217Z,100998.25
2022-08-17T02:36:27.243Z,100999.12
2022-08-17T02:37:30.980Z,101000.38
2022-08-17T02:38:33.658Z,101000.38
2022-08-17T02:39:36.434Z,101000.39
2022-08-17T02:40:40.519Z,101001.89
2022-08-17T02:41:44.953Z,100999.89
2022-08-17T02:42:49.052Z,100996.69
2022-08-17T02:43:52.239Z,100999.89
2022-08-17T02:44:54.970Z,100998.41
2022-08-17T02:45:57.722Z,100996.17
2022-08-17T02:47:00.615Z,100995.92
2022-08-17T02:48:03.874Z,100999.45
2022-08-17T02:49:06.596Z,100999.23
2022-08-17T02:50:11.051Z,100998.09
2022-08-17T02:51:13.856Z,101001.02
2022-08-17T02:52:16.503Z,100997.49
2022-08-17T02:53:39.238Z,100999.83
2022-08-17T02:54:42.480Z,100995.48
2022-08-17T02:55:45.459Z,100995.59
2022-08-17T02:56:48.151Z,100994.17
2022-08-17T02:57:51.513Z,100991.66
2022-08-17T02:58:54.227Z,100994.38
2022-08-17T02:59:56.995Z,100993.08
2022-08-17T03:01:00.526Z,100995.25
2022-08-17T03:02:04.155Z,100992.58
2022-08-17T03:03:07.594Z,100995.42
2022-08-17T03:04:10.238Z,100999.72
2022-08-17T03:05:14.070Z,100999.61
2022-08-17T03:06:16.724Z,101002.80
2022-08-17T03:07:20.301Z,101006.13
2022-08-17T03:08:23.425Z,101005.32
2022-08-17T03:09:26.289Z,101007.17
2022-08-17T03:10:29.801Z,101005.58
2022-08-17T03:11:32.669Z,101006.01
2022-08-17T03:12:37.641Z,101004.23
2022-08-17T03:13:40.302Z,101006.34
2022-08-17T03:14:43.499Z,101007.17
2022-08-17T03:15:47.579Z,101001.65
2022-08-17T03:16:50.363Z,101002.09
2022-08-17T03:17:53.572Z,101001.06
2022-08-17T03:18:56.729Z,101000.36
2022-08-17T03:19:59.408Z,101002.04
2022-08-17T03:21:04.658Z,101000.63
2022-08-17T03:22:36.099Z,101001.02
2022-08-17T03:23:31.123Z,101001.45
2022-08-17T03:24:34.038Z,100998.55
2022-08-17T03:25:41.207Z,101001.83
2022-08-17T03:26:46.193Z,101000.46
2022-08-17T03:27:49.446Z,101001.22
2022-08-17T03:28:54.345Z,101004.33
2022-08-17T03:29:57.028Z,101003.67
2022-08-17T03:30:59.824Z,101005.02
2022-08-17T03:32:10.367Z,101004.11
2022-08-17T03:33:13.133Z,101004.98
2022-08-17T03:34:16.640Z,101005.48
2022-08-17T03:35:21.240Z,101003.30
2022-08-17T03:36:23.900Z,101006.73
2022-08-17T03:37:26.808Z,101006.57
2022-08-17T03:38:29.535Z,101010.31
2022-08-17T03:39:42.913Z,101013.04
2022-08-17T03:40:58.931Z,101011.62
2022-08-17T03:42:09.713Z,101013.20
2022-08-17T03:43:32.771Z,101013.58
2022-08-17T03:44:35.502Z,101012.27
2022-08-17T03:45:57.172Z,101011.99
2022-08-17T03:47:18.237Z,101009.93
2022-08-17T03:48:39.791Z,101014.63
2022-08-17T03:50:01.164Z,101017.99
2022-08-17T03:51:22.455Z,101020.42
2022-08-17T03:52:43.589Z,101019.95
2022-08-17T03:54:06.158Z,101020.71
2022-08-17T03:55:35.745Z,101021.20
2022-08-17T03:56:42.321Z,101024.78
2022-08-17T03:57:45.879Z,101020.82
2022-08-17T03:58:49.354Z,101022.87
2022-08-17T03:59:52.852Z,101022.54
2022-08-17T04:00:55.767Z,101024.35
2022-08-17T04:02:02.409Z,101024.40
2022-08-17T04:03:05.122Z,101024.73
2022-08-17T04:04:08.862Z,101020.64
2022-08-17T04:05:11.593Z,101021.47
2022-08-17T04:06:14.386Z,101022.84
2022-08-17T04:07:17.405Z,101019.46
2022-08-17T04:08:20.436Z,101019.64
2022-08-17T04:09:23.113Z,101022.24
2022-08-17T04:10:26.615Z,101024.91
2022-08-17T04:11:29.267Z,101023.54
2022-08-17T04:12:43.110Z,101019.77
2022-08-17T04:13:45.806Z,101024.84
2022-08-17T04:14:52.890Z,101026.38
2022-08-17T04:15:59.296Z,101028.11
2022-08-17T04:17:02.597Z,101032.58
2022-08-17T04:18:07.460Z,101032.26
2022-08-17T04:19:10.318Z,101033.19
2022-08-17T04:20:13.571Z,101031.77
2022-08-17T04:21:16.392Z,101032.08
2022-08-17T04:22:30.627Z,101030.45
2022-08-17T04:23:37.866Z,101029.65
2022-08-17T04:24:40.499Z,101028.11
2022-08-17T04:25:44.739Z,101027.52
2022-08-17T04:26:53.682Z,101026.65
2022-08-17T04:27:57.315Z,101027.63
2022-08-17T04:29:00.133Z,101030.14
2022-08-17T04:30:03.815Z,101031.39
2022-08-17T04:31:06.611Z,101028.13
2022-08-17T04:32:10.191Z,101032.16
2022-08-17T04:33:14.699Z,101029.10
2022-08-17T04:34:19.781Z,101030.89
2022-08-17T04:35:25.539Z,101033.29
2022-08-17T04:36:28.475Z,101039.02
2022-08-17T04:37:31.598Z,101037.77
2022-08-17T04:38:35.984Z,101039.23
2022-08-17T04:39:38.763Z,101038.90
2022-08-17T04:41:00.102Z,101041.91
2022-08-17T04:42:17.177Z,101040.01
2022-08-17T04:43:22.020Z,101043.47
2022-08-17T04:44:36.776Z,101043.73
2022-08-17T04:45:55.181Z,101045.31
2022-08-17T04:46:59.439Z,101043.45
2022-08-17T04:48:02.188Z,101046.45
2022-08-17T04:49:10.033Z,101043.42
2022-08-17T04:50:12.724Z,101044.77
2022-08-17T04:51:17.765Z,101044.29
2022-08-17T04:52:29.727Z,101045.66
2022-08-17T04:53:44.704Z,101039.55
2022-08-17T04:54:47.453Z,101044.45
2022-08-17T04:55:52.135Z,101042.61
2022-08-17T04:56:55.079Z,101045.05
2022-08-17T04:57:57.768Z,101047.33
2022-08-17T04:59:02.640Z,101050.59
2022-08-17T05:00:06.393Z,101053.97
2022-08-17T05:01:09.129Z,101049.72
2022-08-17T05:02:14.027Z,101054.73
2022-08-17T05:03:16.708Z,101052.59
2022-08-17T05:04:34.581Z,101050.08
2022-08-17T05:05:39.203Z,101051.05
2022-08-17T05:06:41.956Z,101048.96
2022-08-17T05:07:44.824Z,101046.29
2022-08-17T05:08:47.580Z,101045.86
2022-08-17T05:09:50.267Z,101046.26
2022-08-17T05:10:52.980Z,101046.18
2022-08-17T05:11:56.226Z,101048.31
2022-08-17T05:13:01.007Z,101047.42
2022-08-17T05:14:03.966Z,101042.95
2022-08-17T05:15:10.585Z,101042.94
2022-08-17T05:16:13.436Z,101047.58
2022-08-17T05:17:16.726Z,101047.17
2022-08-17T05:18:19.603Z,101049.07
2022-08-17T05:19:22.265Z,101050.04
2022-08-17T05:20:25.227Z,101049.17
2022-08-17T05:21:28.382Z,101049.23
2022-08-17T05:22:31.348Z,101053.60
2022-08-17T05:23:42.713Z,101055.85
2022-08-17T05:24:53.775Z,101052.37
2022-08-17T05:25:58.334Z,101057.16
2022-08-17T05:27:06.183Z,101057.36
2022-08-17T05:28:10.898Z,101056.48
2022-08-17T05:29:13.957Z,101059.75
2022-08-17T05:30:17.495Z,101062.09
2022-08-17T05:31:20.212Z,101061.98
2022-08-17T05:32:39.321Z,101063.29
2022-08-17T05:33:44.598Z,101066.10
2022-08-17T05:34:49.177Z,101067.35
2022-08-17T05:35:54.689Z,101066.86
2022-08-17T05:36:57.410Z,101066.62
2022-08-17T05:38:01.094Z,101071.73
2022-08-17T05:39:03.870Z,101069.48
2022-08-17T05:40:07.207Z,101070.09
2022-08-17T05:41:10.077Z,101073.91
2022-08-17T05:42:12.783Z,101078.81
2022-08-17T05:43:20.899Z,101076.58
2022-08-17T05:44:23.616Z,101079.09
2022-08-17T05:45:39.877Z,101079.28
2022-08-17T05:46:51.086Z,101084.19
2022-08-17T05:47:53.992Z,101082.23
2022-08-17T05:48:59.219Z,101081.63
2022-08-17T05:50:02.497Z,101078.45
2022-08-17T05:51:12.344Z,101081.73
2022-08-17T05:52:33.707Z,101078.44
2022-08-17T05:53:49.221Z,101078.60
2022-08-17T05:55:10.295Z,101078.88
2022-08-17T05:56:29.890Z,101083.18
2022-08-17T05:57:53.770Z,101082.41
2022-08-17T05:59:09.977Z,101081.35
2022-08-17T06:00:16.108Z,101084.30
2022-08-17T06:01:31.611Z,101089.15
2022-08-17T06:02:47.650Z,101087.55
2022-08-17T06:03:50.733Z,101088.84
2022-08-17T06:04:59.712Z,101087.93
2022-08-17T06:06:21.411Z,101086.30
2022-08-17T06:07:46.580Z,101085.67
2022-08-17T06:09:07.888Z,101084.58
2022-08-17T06:10:10.617Z,101084.11
2022-08-17T06:11:22.700Z,101084.44
2022-08-17T06:12:44.621Z,101088.28
2022-08-17T06:13:47.375Z,101089.36
2022-08-17T06:15:01.875Z,101091.95
2022-08-17T06:16:33.594Z,101084.67
2022-08-17T06:17:31.180Z,101088.20
2022-08-17T06:18:44.071Z,101087.73
2022-08-17T06:19:55.292Z,101088.77
2022-08-17T06:21:00.881Z,101090.31
2022-08-17T06:22:05.782Z,101090.31
2022-08-17T06:23:10.610Z,101090.23
2022-08-17T06:24:22.745Z,101093.48
2022-08-17T06:25:44.229Z,101093.17
2022-08-17T06:26:47.834Z,101095.44
2022-08-17T06:27:54.057Z,101096.84
2022-08-17T06:29:00.415Z,101097.36
2022-08-17T06:30:16.710Z,101101.83
2022-08-17T06:31:22.663Z,101101.09
2022-08-17T06:32:25.791Z,101102.13
2022-08-17T06:33:34.361Z,101102.08
2022-08-17T06:34:38.200Z,101103.50
2022-08-17T06:36:02.991Z,101103.77
2022-08-17T06:37:31.204Z,101100.59
2022-08-17T06:38:49.908Z,101100.04
2022-08-17T06:40:03.102Z,101104.08
2022-08-17T06:41:15.525Z,101103.72
2022-08-17T06:43:02.752Z,101103.17
2022-08-17T06:44:42.294Z,101105.52
2022-08-17T06:45:49.396Z,101099.23
2022-08-17T06:46:56.247Z,101104.80
2022-08-17T06:48:01.631Z,101104.39
2022-08-17T06:49:21.933Z,101103.61
2022-08-17T06:50:24.610Z,101109.34
2022-08-17T06:51:30.166Z,101109.02
2022-08-17T06:52:45.916Z,101107.68
2022-08-17T06:54:00.491Z,101106.15
2022-08-17T06:55:06.192Z,101108.80
2022-08-17T06:56:10.261Z,101103.28
2022-08-17T06:57:23.042Z,101104.42
2022-08-17T06:58:29.504Z,101102.73
2022-08-17T06:59:55.204Z,101100.65
2022-08-17T07:01:04.338Z,101102.73
2022-08-17T07:02:09.546Z,101105.09
2022-08-17T07:03:24.492Z,101101.15
2022-08-17T07:04:31.167Z,101105.07
2022-08-17T07:05:33.860Z,101102.20
2022-08-17T07:06:42.679Z,101103.77
2022-08-17T07:08:03.272Z,101101.80
2022-08-17T07:09:08.276Z,101102.75
2022-08-17T07:10:12.055Z,101102.75
2022-08-17T07:11:16.795Z,101101.83
2022-08-17T07:12:22.527Z,101101.95
2022-08-17T07:13:31.350Z,101104.94
2022-08-17T07:14:36.722Z,101104.23
2022-08-17T07:15:42.520Z,101108.67
2022-08-17T07:16:53.106Z,101106.17
2022-08-17T07:17:59.752Z,101107.82
2022-08-17T07:19:02.773Z,101102.14
2022-08-17T07:20:10.561Z,101105.25
2022-08-17T07:21:30.472Z,101110.21
2022-08-17T07:22:55.298Z,101105.16
2022-08-17T07:24:01.060Z,101106.19
2022-08-17T07:25:06.580Z,101105.15
2022-08-17T07:26:09.912Z,101105.88
2022-08-17T07:27:14.624Z,101110.58
2022-08-17T07:28:22.894Z,101106.86
2022-08-17T07:29:27.107Z,101111.71
2022-08-17T07:30:47.276Z,101111.66
2022-08-17T07:31:50.516Z,101115.30
2022-08-17T07:32:58.378Z,101114.09
2022-08-17T07:34:03.926Z,101115.61
2022-08-17T07:35:18.161Z,101114.50
2022-08-17T07:36:29.994Z,101114.91
2022-08-17T07:37:33.352Z,101110.77
2022-08-17T07:38:54.258Z,101113.83
2022-08-17T07:40:14.754Z,101116.51
2022-08-17T07:41:20.361Z,101115.39
2022-08-17T07:42:23.491Z,101112.83
2022-08-17T07:43:27.710Z,101110.59
2022-08-17T07:44:46.368Z,101108.91
2022-08-17T07:46:13.682Z,101106.05
2022-08-17T07:47:35.426Z,101109.87
2022-08-17T07:48:38.927Z,101112.44
2022-08-17T07:49:46.089Z,101112.77
2022-08-17T07:50:49.542Z,101112.88
2022-08-17T07:51:56.611Z,101109.77
2022-08-17T07:53:15.222Z,101113.16
2022-08-17T07:54:28.577Z,101112.48
2022-08-17T07:55:32.963Z,101111.52
2022-08-17T07:56:41.477Z,101108.34
2022-08-17T07:57:54.311Z,101106.50
2022-08-17T07:59:09.261Z,101104.56
2022-08-17T08:00:24.358Z,101105.87
2022-08-17T08:01:39.668Z,101103.71
2022-08-17T08:02:47.629Z,101102.61
2022-08-17T08:03:52.574Z,101103.59
2022-08-17T08:05:08.584Z,101104.02
2022-08-17T08:06:25.077Z,101103.54
2022-08-17T08:07:31.866Z,101103.04
2022-08-17T08:08:42.362Z,101106.00
2022-08-17T08:09:58.691Z,101102.16
2022-08-17T08:11:03.823Z,101103.27
2022-08-17T08:12:33.431Z,101097.16
2022-08-17T08:13:42.484Z,101102.29
2022-08-17T08:14:53.238Z,101103.27
2022-08-17T08:16:11.684Z,101106.64
2022-08-17T08:17:22.353Z,101111.18
2022-08-17T08:18:55.015Z,101114.05
2022-08-17T08:19:50.932Z,101115.38
2022-08-17T08:20:55.263Z,101118.23
2022-08-17T08:22:02.388Z,101124.14
2022-08-17T08:23:05.507Z,101125.12
2022-08-17T08:24:11.139Z,101130.88
2022-08-17T08:25:25.414Z,101130.86
2022-08-17T08:26:37.211Z,101133.30
2022-08-17T08:27:39.913Z,101135.43
2022-08-17T08:28:54.697Z,101137.54
2022-08-17T08:30:06.640Z,101139.44
2022-08-17T08:31:18.265Z,101138.05
2022-08-17T08:32:36.900Z,101137.48
2022-08-17T08:33:44.366Z,101140.45
2022-08-17T08:35:01.155Z,101145.44
2022-08-17T08:37:12.921Z,101146.38
2022-08-17T08:37:47.274Z,101150.36
2022-08-17T08:38:56.688Z,101148.04
2022-08-17T08:40:17.614Z,101148.90
2022-08-17T08:41:34.563Z,101145.52
2022-08-17T08:42:43.202Z,101144.69
2022-08-17T08:43:52.203Z,101148.26
2022-08-17T08:45:05.423Z,101148.47
2022-08-17T08:46:20.616Z,101146.73
2022-08-17T08:47:41.948Z,101143.55
2022-08-17T08:48:55.860Z,101145.89
2022-08-17T08:50:05.409Z,101144.10
2022-08-17T08:51:20.637Z,101142.53
2022-08-17T08:52:41.521Z,101138.92
2022-08-17T08:54:04.636Z,101139.46
2022-08-17T08:55:15.477Z,101142.02
2022-08-17T08:56:27.828Z,101141.24
2022-08-17T08:57:38.120Z,101139.10
2022-08-17T08:58:51.577Z,101140.61
2022-08-17T08:59:54.244Z,101141.73
2022-08-17T09:01:03.163Z,101141.77
2022-08-17T09:02:20.887Z,101142.30
2022-08-17T09:03:52.230Z,101146.06
2022-08-17T09:05:15.703Z,101147.92
2022-08-17T09:06:33.417Z,101151.35
2022-08-17T09:07:56.311Z,101153.79
2022-08-17T09:09:17.899Z,101155.45
2022-08-17T09:10:39.163Z,101159.59
2022-08-17T09:12:01.803Z,101157.92
2022-08-17T09:13:10.074Z,101160.09
2022-08-17T09:14:28.626Z,101163.40
2022-08-17T09:15:40.264Z,101164.60
2022-08-17T09:16:46.108Z,101164.99
2022-08-17T09:18:28.489Z,101166.30
2022-08-17T09:19:53.238Z,101167.89
2022-08-17T09:20:57.829Z,101166.35
2022-08-17T09:22:03.448Z,101170.11
2022-08-17T09:23:22.645Z,101162.59
2022-08-17T09:24:31.415Z,101164.36
2022-08-17T09:25:42.481Z,101166.41
2022-08-17T09:26:54.415Z,101167.22
2022-08-17T09:28:00.653Z,101167.22
2022-08-17T09:29:07.277Z,101167.85
2022-08-17T09:30:11.144Z,101165.35
2022-08-17T09:31:20.412Z,101166.34
2022-08-17T09:32:44.026Z,101166.08
2022-08-17T09:33:48.261Z,101159.96
2022-08-17T09:34:54.819Z,101161.96
2022-08-17T09:36:02.770Z,101159.63
2022-08-17T09:37:24.364Z,101161.78
2022-08-17T09:38:53.960Z,101169.07
2022-08-17T09:40:06.962Z,101167.66
2022-08-17T09:41:15.301Z,101168.63
2022-08-17T09:42:22.838Z,101169.31
2022-08-17T09:43:37.524Z,101167.81
2022-08-17T09:44:42.785Z,101163.98
2022-08-17T09:45:50.747Z,101164.02
2022-08-17T09:46:56.081Z,101165.95
2022-08-17T09:48:12.308Z,101167.70
2022-08-17T09:49:27.372Z,101164.27
2022-08-17T09:51:04.201Z,101167.66
2022-08-17T09:52:07.975Z,101166.63
2022-08-17T09:53:10.781Z,101164.59
2022-08-17T09:54:38.056Z,101167.11
2022-08-17T09:56:08.354Z,101165.52
2022-08-17T09:57:30.009Z,101164.46
2022-08-17T09:58:42.849Z,101167.05
2022-08-17T10:00:08.529Z,101161.46
2022-08-17T10:01:23.904Z,101159.95
2022-08-17T10:02:45.630Z,101159.85
2022-08-17T10:04:00.631Z,101158.98
2022-08-17T10:05:03.339Z,101156.64
2022-08-17T10:06:35.501Z,101158.52
2022-08-17T10:07:56.028Z,101166.05
2022-08-17T10:09:08.260Z,101168.81
2022-08-17T10:10:25.635Z,101170.09
2022-08-17T10:12:06.414Z,101166.30
2022-08-17T10:13:26.850Z,101171.31
2022-08-17T10:14:45.612Z,101169.91
2022-08-17T10:16:07.778Z,101171.98
2022-08-17T10:17:18.966Z,101173.06
2022-08-17T10:18:44.877Z,101175.01
2022-08-17T10:20:16.868Z,101171.38
2022-08-17T10:21:38.308Z,101174.03
2022-08-17T10:23:07.515Z,101171.90
2022-08-17T10:24:31.914Z,101172.98
2022-08-17T10:25:56.065Z,101174.40
2022-08-17T10:27:00.721Z,101173.15
2022-08-17T10:28:11.722Z,101173.53
2022-08-17T10:29:25.266Z,101170.42
2022-08-17T10:30:33.197Z,101172.61
2022-08-17T10:31:40.515Z,101171.63
2022-08-17T10:32:55.127Z,101174.58
2022-08-17T10:34:00.705Z,101174.08
2022-08-17T10:35:12.430Z,101174.95
2022-08-17T10:36:20.962Z,101174.77
2022-08-17T10:37:52.838Z,101178.92
2022-08-17T10:38:58.775Z,101175.27
2022-08-17T10:40:20.403Z,101175.95
2022-08-17T10:41:26.678Z,101172.66
2022-08-17T10:42:37.848Z,101175.38
2022-08-17T10:44:36.735Z,101174.27
2022-08-17T10:45:18.701Z,101177.06
2022-08-17T10:46:29.991Z,101178.26
2022-08-17T10:48:04.824Z,101176.21
2022-08-17T10:49:14.017Z,101174.23
2022-08-17T10:50:42.683Z,101176.79
2022-08-17T10:51:48.047Z,101173.63
2022-08-17T10:52:50.911Z,101176.49
2022-08-17T10:53:54.385Z,101173.09
2022-08-17T10:55:13.394Z,101173.17
2022-08-17T10:56:19.006Z,101178.11
2022-08-17T10:57:31.818Z,101179.23
2022-08-17T10:58:54.870Z,101183.39
2022-08-17T10:59:58.945Z,101182.35
2022-08-17T11:01:02.324Z,101186.23
2022-08-17T11:02:17.613Z,101185.19
2022-08-17T11:03:23.603Z,101184.80
2022-08-17T11:04:45.884Z,101181.80
2022-08-17T11:05:50.302Z,101182.11
2022-08-17T11:07:02.157Z,101181.05
2022-08-17T11:08:23.413Z,101179.81
2022-08-17T11:09:49.810Z,101175.04
2022-08-17T11:11:01.721Z,101177.31
2022-08-17T11:12:07.283Z,101176.92
2022-08-17T11:13:35.490Z,101178.78
2022-08-17T11:14:58.003Z,101178.08
2022-08-17T11:16:06.131Z,101176.23
2022-08-17T11:17:23.199Z,101182.31
2022-08-17T11:18:34.900Z,101182.38
2022-08-17T11:19:40.305Z,101184.88
2022-08-17T11:20:55.147Z,101185.63
2022-08-17T11:22:03.828Z,101182.48
2022-08-17T11:23:09.519Z,101184.14
2022-08-17T11:24:17.868Z,101183.61
2022-08-17T11:25:31.291Z,101182.38
2022-08-17T11:26:35.775Z,101185.91
2022-08-17T11:27:38.569Z,101186.58
2022-08-17T11:28:48.797Z,101190.85
2022-08-17T11:30:01.898Z,101188.31
2022-08-17T11:31:08.982Z,101191.45
2022-08-17T11:32:30.243Z,101189.42
2022-08-17T11:33:32.873Z,101191.10
2022-08-17T11:34:35.638Z,101190.79
2022-08-17T11:35:45.033Z,101191.08
2022-08-17T11:36:53.669Z,101189.66
2022-08-17T11:37:59.645Z,101189.79
2022-08-17T11:39:25.111Z,101187.29
2022-08-17T11:40:41.403Z,101190.31
2022-08-17T11:42:07.323Z,101189.68
2022-08-17T11:43:27.420Z,101183.77
2022-08-17T11:44:47.158Z,101188.00
2022-08-17T11:45:50.057Z,101182.65
2022-08-17T11:47:17.668Z,101183.45
2022-08-17T11:48:39.372Z,101182.92
2022-08-17T11:50:16.232Z,101186.52
2022-08-17T11:51:36.252Z,101182.69
2022-08-17T11:52:39.276Z,101185.92
2022-08-17T11:53:43.104Z,101185.25
2022-08-17T11:54:47.071Z,101185.31
2022-08-17T11:55:52.731Z,101185.61
2022-08-17T11:56:56.436Z,101183.59
2022-08-17T11:58:03.539Z,101181.44
2022-08-17T11:59:25.496Z,101180.67
2022-08-17T12:00:52.056Z,101184.54
2022-08-17T12:01:56.749Z,101182.02
2022-08-17T12:03:22.276Z,101183.80
2022-08-17T12:04:25.284Z,101184.02
2022-08-17T12:05:31.155Z,101183.06
2022-08-17T12:06:42.417Z,101179.43
2022-08-17T12:07:51.912Z,101184.09
2022-08-17T12:08:58.387Z,101180.40
2022-08-17T12:10:01.465Z,101179.37
2022-08-17T12:11:12.262Z,101181.17
2022-08-17T12:12:22.143Z,101182.48
2022-08-17T12:13:30.541Z,101187.11
2022-08-17T12:15:11.013Z,101190.19
2022-08-17T12:16:16.794Z,101186.77
2022-08-17T12:17:39.679Z,101186.29
2022-08-17T12:18:58.057Z,101186.67
2022-08-17T12:20:19.455Z,101186.20
2022-08-17T12:21:22.424Z,101185.55
2022-08-17T12:22:33.265Z,101191.38
2022-08-17T12:23:41.776Z,101194.83
2022-08-17T12:24:54.615Z,101193.41
2022-08-17T12:26:00.578Z,101193.34
2022-08-17T12:27:05.775Z,101185.70
2022-08-17T12:28:22.116Z,101189.13
2022-08-17T12:29:38.513Z,101188.08
2022-08-17T12:30:48.625Z,101196.94
2022-08-17T12:31:55.088Z,101199.11
2022-08-17T12:32:58.283Z,101200.63
2022-08-17T12:34:02.692Z,101199.42
2022-08-17T12:35:06.594Z,101198.58
2022-08-17T12:36:14.816Z,101198.98
2022-08-17T12:37:23.526Z,101201.08
2022-08-17T12:38:33.255Z,101199.62
2022-08-17T12:39:38.408Z,101194.66
2022-08-17T12:40:53.411Z,101207.34
2022-08-17T12:42:02.376Z,101200.50
2022-08-17T12:43:07.763Z,101202.29
2022-08-17T12:44:22.595Z,101204.13
2022-08-17T12:45:29.382Z,101205.17
2022-08-17T12:46:34.857Z,101202.02
2022-08-17T12:47:38.256Z,101206.09
2022-08-17T12:48:58.998Z,101210.02
2022-08-17T12:50:28.970Z,101210.38
2022-08-17T12:51:31.834Z,101208.54
2022-08-17T12:52:37.543Z,101209.44
2022-08-17T12:53:42.459Z,101205.90
2022-08-17T12:54:51.253Z,101208.81
2022-08-17T12:55:54.884Z,101207.81
2022-08-17T12:57:02.182Z,101207.63
2022-08-17T12:58:07.406Z,101205.34
2022-08-17T12:59:12.811Z,101208.79
2022-08-17T13:00:34.001Z,101202.17
2022-08-17T13:01:41.743Z,101206.77
2022-08-17T13:02:49.504Z,101208.46
2022-08-17T13:03:57.213Z,101208.33
2022-08-17T13:05:01.236Z,101205.82
2022-08-17T13:06:09.613Z,101207.34
2022-08-17T13:07:14.271Z,101207.41
2022-08-17T13:08:19.124Z,101204.46
2022-08-17T13:09:35.364Z,101198.50
2022-08-17T13:10:39.774Z,101200.73
2022-08-17T13:11:50.736Z,101197.83
2022-08-17T13:12:54.031Z,101197.89
2022-08-17T13:14:08.527Z,101198.25
2022-08-17T13:15:19.711Z,101201.24
2022-08-17T13:16:26.693Z,101199.42
2022-08-17T13:17:32.368Z,101199.83